NORTHEAST SUFFOLK  -  Frost Advisory Frost Advisory        NORTHWEST SUFFOLK  -  Frost Advisory Frost Advisory        SOUTHEAST SUFFOLK  -  Frost Advisory Frost Advisory        SOUTHWEST SUFFOLK  -  Frost Advisory Frost Advisory      

Active alerts

Northwest Suffolk
  Details for Northwest Suffolk Frost Advisory
Southwest Suffolk
  Details for Southwest Suffolk Frost Advisory
Northeast Suffolk
  Details for Northeast Suffolk Frost Advisory
Southeast Suffolk
  Details for Southeast Suffolk Frost Advisory


WXM80 ListenWXM80 Stop

You find our weather info also at:

UK Metoffice

WeatherCloud

Weather Underground

Northeastern Weather Network

AWEKAS

Citizen Weather Observer Program (CWOP)

HAMweather, WeatherForYou, PWS Weather


Weather Underground History page Text

Daily Summary for September 3, 2016 Units:  English    Metric   Both
« Previous Day
Next Day »
Daily Weekly Monthly Yearly Custom
  High: Low: Average:
Temperature: 73.8 °F 65.5 °F 69.3 °F
Dew Point: 65.0 °F 59.0 °F 62.6 °F
Humidity: 94 % 65 % 80 %
Wind Speed: 8.9 mph 0.0 mph 2.1 mph
Wind Gust: 14.0 mph - -
Wind:- - East
Pressure: 30.17 in 30.10 in -
Precipitation: 0.00 in    
Historical Graphs
 
 
Tabular Data for September 3, 2016
Time Temperature Dew Point Pressure Wind Wind Speed Wind Gust Humidity Rainfall Rate (Hourly)
00:03 71.0 °F 61.1 °F 30.12 in Calm     71 % 0.00 in
00:08 70.7 °F 61.2 °F 30.12 in Calm     72 % 0.00 in
00:13 70.5 °F 61.4 °F 30.12 in Calm     73 % 0.00 in
00:18 70.2 °F 61.1 °F 30.13 in Calm     73 % 0.00 in
00:24 70.0 °F 61.7 °F 30.13 in Calm     75 % 0.00 in
00:29 69.7 °F 61.4 °F 30.13 in Calm     75 % 0.00 in
00:34 69.4 °F 61.5 °F 30.13 in Calm     76 % 0.00 in
00:39 69.0 °F 61.5 °F 30.13 in Calm     77 % 0.00 in
00:44 68.7 °F 61.2 °F 30.13 in Calm     77 % 0.00 in
00:49 68.5 °F 61.4 °F 30.13 in Calm     78 % 0.00 in
00:54 68.2 °F 61.1 °F 30.13 in Calm     78 % 0.00 in
00:59 68.0 °F 61.2 °F 30.13 in Calm     79 % 0.00 in
01:04 67.7 °F 61.3 °F 30.13 in Calm     80 % 0.00 in
01:09 67.5 °F 61.1 °F 30.13 in Calm     80 % 0.00 in
01:15 67.3 °F 60.9 °F 30.13 in Calm     80 % 0.00 in
01:20 67.1 °F 61.1 °F 30.13 in Calm     81 % 0.00 in
01:25 67.0 °F 61.0 °F 30.12 in Calm     81 % 0.00 in
01:30 66.8 °F 60.8 °F 30.13 in Calm     81 % 0.00 in
01:35 66.6 °F 60.9 °F 30.13 in SE 0.1 mph 1.2 mph 82 % 0.00 in
01:40 66.5 °F 61.2 °F 30.13 in SE 0.4 mph 1.2 mph 83 % 0.00 in
01:45 66.5 °F 61.8 °F 30.12 in SE 1.6 mph 3.5 mph 85 % 0.00 in
01:50 66.5 °F 61.8 °F 30.12 in Calm   1.2 mph 85 % 0.00 in
01:55 66.4 °F 61.4 °F 30.13 in Calm     84 % 0.00 in
02:00 66.3 °F 61.7 °F 30.13 in Calm     85 % 0.00 in
02:06 66.3 °F 61.6 °F 30.12 in Calm     85 % 0.00 in
02:11 66.2 °F 61.2 °F 30.13 in Calm     84 % 0.00 in
02:16 66.1 °F 61.5 °F 30.13 in Calm     85 % 0.00 in
02:21 66.0 °F 61.4 °F 30.13 in Calm   1.0 mph 85 % 0.00 in
02:26 66.0 °F 61.3 °F 30.13 in Calm   1.0 mph 85 % 0.00 in
02:31 65.9 °F 61.6 °F 30.13 in Calm     86 % 0.00 in
02:36 65.8 °F 61.5 °F 30.13 in Calm   1.0 mph 86 % 0.00 in
02:41 65.8 °F 61.5 °F 30.13 in Calm   1.0 mph 86 % 0.00 in
02:46 65.7 °F 61.7 °F 30.13 in Calm   1.0 mph 87 % 0.00 in
02:51 65.7 °F 61.7 °F 30.13 in Calm   2.0 mph 87 % 0.00 in
02:56 65.6 °F 61.9 °F 30.13 in SE 1.0 mph 2.0 mph 88 % 0.00 in
03:01 65.6 °F 62.3 °F 30.13 in SE 1.6 mph 3.5 mph 89 % 0.00 in
03:06 65.6 °F 62.6 °F 30.12 in SE 0.7 mph 3.5 mph 90 % 0.00 in
03:11 65.7 °F 62.7 °F 30.13 in Calm     90 % 0.00 in
03:16 65.7 °F 63.0 °F 30.12 in SE 0.2 mph 1.2 mph 91 % 0.00 in
03:21 65.7 °F 63.0 °F 30.13 in Calm   1.2 mph 91 % 0.00 in
03:26 65.8 °F 63.1 °F 30.12 in SE 0.2 mph 1.2 mph 91 % 0.00 in
03:31 65.8 °F 63.1 °F 30.12 in Calm     91 % 0.00 in
03:36 65.8 °F 63.1 °F 30.12 in Calm     91 % 0.00 in
03:41 65.7 °F 63.0 °F 30.12 in Calm     91 % 0.00 in
03:47 65.8 °F 63.1 °F 30.12 in Calm     91 % 0.00 in
03:52 65.7 °F 63.0 °F 30.12 in Calm     91 % 0.00 in
03:57 65.7 °F 63.0 °F 30.11 in Calm     91 % 0.00 in
04:02 65.7 °F 63.0 °F 30.11 in Calm     91 % 0.00 in
04:07 65.6 °F 62.9 °F 30.11 in Calm     91 % 0.00 in
04:12 65.6 °F 62.9 °F 30.11 in Calm     91 % 0.00 in
04:17 65.7 °F 63.3 °F 30.11 in SE 0.6 mph 2.3 mph 92 % 0.00 in
04:22 65.7 °F 63.3 °F 30.11 in SE 0.1 mph 1.2 mph 92 % 0.00 in
04:27 65.7 °F 63.3 °F 30.11 in Calm   1.2 mph 92 % 0.00 in
04:32 65.8 °F 63.4 °F 30.11 in SE 0.1 mph 1.2 mph 92 % 0.00 in
04:38 65.8 °F 63.7 °F 30.12 in Calm     93 % 0.00 in
04:43 65.8 °F 63.7 °F 30.12 in Calm     93 % 0.00 in
04:48 65.7 °F 63.3 °F 30.11 in Calm   1.2 mph 92 % 0.00 in
04:53 65.7 °F 63.3 °F 30.12 in Calm   1.2 mph 92 % 0.00 in
04:58 65.7 °F 63.3 °F 30.12 in Calm   1.2 mph 92 % 0.00 in
05:03 65.7 °F 63.3 °F 30.12 in Calm   1.2 mph 92 % 0.00 in
05:08 65.7 °F 63.3 °F 30.12 in Calm   1.0 mph 92 % 0.00 in
05:13 65.7 °F 63.3 °F 30.12 in Calm     92 % 0.00 in
05:18 65.7 °F 63.6 °F 30.12 in Calm   1.2 mph 93 % 0.00 in
05:23 65.7 °F 63.6 °F 30.12 in Calm   1.2 mph 93 % 0.00 in
05:29 65.7 °F 63.6 °F 30.12 in Calm     93 % 0.00 in
05:34 65.8 °F 63.7 °F 30.12 in Calm     93 % 0.00 in
05:39 65.7 °F 63.6 °F 30.13 in Calm     93 % 0.00 in
05:44 65.8 °F 63.7 °F 30.13 in Calm     93 % 0.00 in
05:49 65.8 °F 63.7 °F 30.13 in Calm   1.2 mph 93 % 0.00 in
05:54 65.8 °F 63.7 °F 30.13 in Calm     93 % 0.00 in
05:59 65.9 °F 63.8 °F 30.13 in Calm     93 % 0.00 in
06:04 66.0 °F 63.9 °F 30.13 in Calm     93 % 0.00 in
06:09 66.1 °F 64.0 °F 30.14 in Calm     93 % 0.00 in
06:14 66.2 °F 64.4 °F 30.14 in ENE 2.6 mph 7.0 mph 94 % 0.00 in
06:20 66.5 °F 64.7 °F 30.14 in ENE 3.8 mph 7.0 mph 94 % 0.00 in
06:25 66.7 °F 64.6 °F 30.14 in ENE 3.6 mph 6.9 mph 93 % 0.00 in
06:30 66.7 °F 64.6 °F 30.14 in ENE 3.9 mph 10.4 mph 93 % 0.00 in
06:35 66.9 °F 64.5 °F 30.14 in NE 4.4 mph 9.2 mph 92 % 0.00 in
06:40 67.0 °F 64.3 °F 30.14 in ENE 3.2 mph 6.9 mph 91 % 0.00 in
06:45 67.1 °F 64.4 °F 30.14 in NE 3.0 mph 8.1 mph 91 % 0.00 in
06:50 67.2 °F 64.5 °F 30.14 in NE 4.0 mph 8.1 mph 91 % 0.00 in
06:55 67.4 °F 64.4 °F 30.14 in ENE 4.0 mph 9.0 mph 90 % 0.00 in
07:00 67.5 °F 64.5 °F 30.14 in ENE 4.7 mph 8.1 mph 90 % 0.00 in
07:05 67.7 °F 64.7 °F 30.14 in NNE 3.1 mph 7.0 mph 90 % 0.00 in
07:10 67.7 °F 64.7 °F 30.14 in ENE 2.4 mph 3.5 mph 90 % 0.00 in
07:16 67.8 °F 64.4 °F 30.15 in ENE 3.2 mph 8.0 mph 89 % 0.00 in
07:21 67.9 °F 64.5 °F 30.15 in ENE 5.0 mph 12.0 mph 89 % 0.00 in
07:26 68.0 °F 64.6 °F 30.15 in ENE 5.0 mph 9.0 mph 89 % 0.00 in
07:31 68.1 °F 64.7 °F 30.15 in ENE 4.2 mph 9.2 mph 89 % 0.00 in
07:36 68.2 °F 64.5 °F 30.15 in ENE 5.0 mph 10.0 mph 88 % 0.00 in
07:41 68.2 °F 64.5 °F 30.15 in ENE 5.0 mph 12.0 mph 88 % 0.00 in
07:46 68.3 °F 64.6 °F 30.15 in NE 6.5 mph 9.2 mph 88 % 0.00 in
07:51 68.3 °F 64.6 °F 30.16 in ENE 5.0 mph 10.0 mph 88 % 0.00 in
07:56 68.3 °F 64.3 °F 30.16 in ENE 6.0 mph 12.0 mph 87 % 0.00 in
08:01 68.4 °F 64.7 °F 30.15 in NE 5.3 mph 8.0 mph 88 % 0.00 in
08:06 68.4 °F 64.7 °F 30.15 in ENE 6.0 mph 12.0 mph 88 % 0.00 in
08:11 68.5 °F 64.5 °F 30.16 in ENE 7.0 mph 14.0 mph 87 % 0.00 in
08:16 68.5 °F 64.5 °F 30.15 in NNE 4.3 mph 10.4 mph 87 % 0.00 in
08:21 68.6 °F 64.9 °F 30.15 in ENE 6.0 mph 12.0 mph 88 % 0.00 in
08:26 68.7 °F 65.0 °F 30.15 in ENE 7.0 mph 12.0 mph 88 % 0.00 in
08:31 68.8 °F 64.8 °F 30.14 in NNE 6.2 mph 11.5 mph 87 % 0.00 in
08:36 68.8 °F 64.8 °F 30.14 in ENE 6.0 mph 14.0 mph 87 % 0.00 in
08:41 68.9 °F 64.5 °F 30.14 in ENE 8.0 mph 13.0 mph 86 % 0.00 in
08:46 69.0 °F 64.6 °F 30.14 in ENE 5.5 mph 11.5 mph 86 % 0.00 in
08:51 69.1 °F 64.4 °F 30.14 in ENE 7.0 mph 14.0 mph 85 % 0.00 in
08:56 69.1 °F 64.4 °F 30.14 in ENE 7.0 mph 14.0 mph 85 % 0.00 in
09:01 69.1 °F 64.4 °F 30.14 in NE 7.8 mph 10.4 mph 85 % 0.00 in
09:06 69.1 °F 64.1 °F 30.14 in NE 6.3 mph 12.7 mph 84 % 0.00 in
09:11 69.2 °F 64.2 °F 30.14 in East 8.9 mph 13.8 mph 84 % 0.00 in
09:16 69.2 °F 64.2 °F 30.14 in ENE 5.0 mph 8.1 mph 84 % 0.00 in
09:21 69.4 °F 64.4 °F 30.15 in NE 6.4 mph 13.8 mph 84 % 0.00 in
09:26 69.4 °F 64.0 °F 30.15 in ENE 6.8 mph 10.4 mph 83 % 0.00 in
09:31 69.5 °F 64.1 °F 30.15 in ENE 7.8 mph 11.5 mph 83 % 0.00 in
09:36 69.7 °F 64.3 °F 30.15 in ENE 2.7 mph 8.1 mph 83 % 0.00 in
09:41 69.8 °F 64.1 °F 30.15 in ENE 6.9 mph 12.7 mph 82 % 0.00 in
09:46 69.9 °F 64.5 °F 30.16 in ENE 5.2 mph 9.2 mph 83 % 0.00 in
09:52 70.0 °F 63.9 °F 30.15 in ENE 5.8 mph 11.5 mph 81 % 0.00 in
09:57 70.1 °F 64.3 °F 30.15 in East 7.3 mph 13.0 mph 82 % 0.00 in
10:02 70.2 °F 64.4 °F 30.15 in ENE 5.3 mph 8.1 mph 82 % 0.00 in
10:07 70.3 °F 64.5 °F 30.15 in East 8.4 mph 11.5 mph 82 % 0.00 in
10:12 70.2 °F 64.4 °F 30.15 in East 7.5 mph 11.5 mph 82 % 0.00 in
10:17 70.2 °F 64.1 °F 30.15 in ENE 8.2 mph 13.8 mph 81 % 0.00 in
10:22 70.2 °F 64.1 °F 30.16 in NE 7.0 mph 11.5 mph 81 % 0.00 in
10:27 70.4 °F 64.6 °F 30.16 in ENE 3.1 mph 3.5 mph 82 % 0.00 in
10:32 70.6 °F 64.1 °F 30.16 in ENE 6.8 mph 11.5 mph 80 % 0.00 in
10:37 70.8 °F 64.7 °F 30.16 in ENE 4.9 mph 9.2 mph 81 % 0.00 in
10:42 70.9 °F 64.8 °F 30.16 in ENE 4.7 mph 8.1 mph 81 % 0.00 in
10:47 71.0 °F 64.2 °F 30.16 in ENE 2.8 mph 4.6 mph 79 % 0.00 in
10:53 71.1 °F 63.9 °F 30.16 in ENE 3.2 mph 6.9 mph 78 % 0.00 in
10:58 71.2 °F 64.0 °F 30.16 in ENE 4.2 mph 6.9 mph 78 % 0.00 in
11:03 71.3 °F 64.1 °F 30.17 in ENE 2.1 mph 3.5 mph 78 % 0.00 in
11:08 71.4 °F 63.8 °F 30.17 in ENE 3.2 mph 5.8 mph 77 % 0.00 in
11:13 71.5 °F 63.9 °F 30.17 in ENE 2.7 mph 10.0 mph 77 % 0.00 in
11:18 71.6 °F 64.0 °F 30.17 in ENE 4.6 mph 10.4 mph 77 % 0.00 in
11:23 71.7 °F 64.1 °F 30.17 in ENE 4.2 mph 6.9 mph 77 % 0.00 in
11:28 71.8 °F 64.6 °F 30.17 in ENE 2.7 mph 6.9 mph 78 % 0.00 in
11:33 72.0 °F 64.4 °F 30.16 in NE 2.4 mph 6.9 mph 77 % 0.00 in
11:39 72.2 °F 65.0 °F 30.16 in East 1.7 mph 5.8 mph 78 % 0.00 in
11:44 72.2 °F 64.2 °F 30.16 in NE 5.5 mph 8.1 mph 76 % 0.00 in
11:49 72.2 °F 64.6 °F 30.16 in ENE 3.7 mph 8.1 mph 77 % 0.00 in
11:54 72.2 °F 64.6 °F 30.16 in ENE 3.0 mph 7.0 mph 77 % 0.00 in
11:59 72.3 °F 64.7 °F 30.16 in ENE 4.4 mph 8.1 mph 77 % 0.00 in
12:04 72.4 °F 64.8 °F 30.16 in ENE 4.1 mph 9.2 mph 77 % 0.00 in
12:09 72.5 °F 64.9 °F 30.16 in East 3.4 mph 8.0 mph 77 % 0.00 in
12:14 72.5 °F 64.5 °F 30.16 in ENE 2.6 mph 4.6 mph 76 % 0.00 in
12:19 72.6 °F 65.0 °F 30.16 in NE 2.6 mph 4.6 mph 77 % 0.00 in
12:24 72.6 °F 64.6 °F 30.16 in ENE 2.2 mph 4.0 mph 76 % 0.00 in
12:30 72.6 °F 64.2 °F 30.16 in ENE 2.9 mph 4.0 mph 75 % 0.00 in
12:35 72.8 °F 64.0 °F 30.16 in East 3.0 mph 4.6 mph 74 % 0.00 in
12:40 72.9 °F 63.7 °F 30.16 in East 2.9 mph 4.6 mph 73 % 0.00 in
12:45 73.0 °F 63.8 °F 30.16 in East 2.8 mph 5.0 mph 73 % 0.00 in
12:50 73.2 °F 63.2 °F 30.16 in ENE 2.8 mph 4.0 mph 71 % 0.00 in
12:55 73.3 °F 63.3 °F 30.16 in East 2.6 mph 4.6 mph 71 % 0.00 in
13:00 73.4 °F 63.4 °F 30.16 in East 2.5 mph 3.5 mph 71 % 0.00 in
13:05 73.4 °F 63.0 °F 30.16 in East 2.3 mph 3.5 mph 70 % 0.00 in
13:10 73.5 °F 63.1 °F 30.16 in East 2.4 mph 4.6 mph 70 % 0.00 in
13:15 73.5 °F 63.1 °F 30.16 in East 2.6 mph 3.5 mph 70 % 0.00 in
13:21 73.4 °F 63.4 °F 30.16 in ENE 2.7 mph 3.5 mph 71 % 0.00 in
13:26 73.3 °F 62.5 °F 30.16 in ENE 3.0 mph 5.0 mph 69 % 0.00 in
13:31 73.2 °F 62.8 °F 30.16 in ENE 2.0 mph 5.0 mph 70 % 0.00 in
13:41 73.2 °F 62.8 °F 30.16 in ENE 3.0 mph 9.0 mph 70 % 0.00 in
13:46 73.2 °F 62.8 °F 30.15 in ENE 3.0 mph 9.0 mph 70 % 0.00 in
13:51 73.2 °F 62.0 °F 30.15 in ENE 2.2 mph 3.5 mph 68 % 0.00 in
13:56 73.2 °F 62.4 °F 30.15 in ENE 2.0 mph 5.0 mph 69 % 0.00 in
14:01 73.3 °F 62.1 °F 30.15 in ENE 1.8 mph 3.5 mph 68 % 0.00 in
14:06 73.3 °F 62.1 °F 30.15 in ENE 1.6 mph 3.5 mph 68 % 0.00 in
14:11 73.2 °F 61.6 °F 30.15 in ENE 2.2 mph 3.5 mph 67 % 0.00 in
14:16 73.1 °F 61.9 °F 30.15 in ENE 3.3 mph 4.6 mph 68 % 0.00 in
14:21 73.1 °F 62.3 °F 30.14 in ENE 2.4 mph 3.5 mph 69 % 0.00 in
14:26 73.1 °F 62.3 °F 30.14 in ENE 3.1 mph 4.6 mph 69 % 0.00 in
14:31 73.2 °F 62.8 °F 30.14 in NE 4.0 mph 5.8 mph 70 % 0.00 in
14:36 73.3 °F 62.9 °F 30.14 in ENE 3.2 mph 4.0 mph 70 % 0.00 in
14:41 73.3 °F 63.3 °F 30.14 in ENE 3.1 mph 3.5 mph 71 % 0.00 in
14:46 73.2 °F 61.6 °F 30.14 in East 5.0 mph 6.0 mph 67 % 0.00 in
14:52 73.1 °F 61.9 °F 30.14 in East 2.0 mph 3.5 mph 68 % 0.00 in
14:57 73.1 °F 62.3 °F 30.13 in East 4.0 mph 8.1 mph 69 % 0.00 in
15:02 73.0 °F 62.2 °F 30.14 in ENE 2.7 mph 5.0 mph 69 % 0.00 in
15:07 72.9 °F 62.1 °F 30.13 in ENE 4.1 mph 10.4 mph 69 % 0.00 in
15:12 72.8 °F 62.0 °F 30.13 in ENE 2.8 mph 6.9 mph 69 % 0.00 in
15:17 72.6 °F 62.3 °F 30.13 in ENE 2.4 mph 3.5 mph 70 % 0.00 in
15:22 72.5 °F 63.0 °F 30.13 in ENE 2.6 mph 3.5 mph 72 % 0.00 in
15:27 72.4 °F 62.5 °F 30.13 in ENE 5.2 mph 6.9 mph 71 % 0.00 in
15:32 72.3 °F 62.4 °F 30.13 in NE 3.4 mph 10.4 mph 71 % 0.00 in
15:37 72.3 °F 62.4 °F 30.13 in ENE 1.9 mph 3.5 mph 71 % 0.00 in
15:43 72.3 °F 62.4 °F 30.13 in ENE 4.4 mph 8.1 mph 71 % 0.00 in
15:48 72.4 °F 62.9 °F 30.13 in East 2.2 mph 4.6 mph 72 % 0.00 in
15:53 72.6 °F 63.1 °F 30.13 in East 1.8 mph 3.5 mph 72 % 0.00 in
15:58 72.8 °F 63.2 °F 30.13 in NE 2.2 mph 3.5 mph 72 % 0.00 in
16:03 72.9 °F 62.9 °F 30.13 in ENE 3.0 mph 5.8 mph 71 % 0.00 in
16:08 72.9 °F 63.3 °F 30.13 in ENE 2.6 mph 3.5 mph 72 % 0.00 in
16:13 73.0 °F 63.4 °F 30.13 in East 2.1 mph 3.5 mph 72 % 0.00 in
16:18 73.1 °F 63.5 °F 30.13 in ENE 1.9 mph 3.5 mph 72 % 0.00 in
16:23 73.3 °F 63.7 °F 30.13 in ENE 2.3 mph 3.5 mph 72 % 0.00 in
16:28 73.4 °F 63.0 °F 30.12 in NE 1.9 mph 3.5 mph 70 % 0.00 in
16:34 73.6 °F 63.6 °F 30.12 in ENE 2.2 mph 3.5 mph 71 % 0.00 in
16:39 73.6 °F 63.6 °F 30.12 in ENE 1.7 mph 3.5 mph 71 % 0.00 in
16:44 73.6 °F 63.6 °F 30.12 in ENE 2.5 mph 4.0 mph 71 % 0.00 in
16:49 73.5 °F 63.1 °F 30.11 in ENE 1.5 mph 3.5 mph 70 % 0.00 in
16:54 73.4 °F 63.0 °F 30.11 in ENE 2.5 mph 3.5 mph 70 % 0.00 in
16:59 73.4 °F 63.4 °F 30.11 in ENE 1.6 mph 3.5 mph 71 % 0.00 in
17:04 73.3 °F 62.9 °F 30.11 in East 1.4 mph 3.5 mph 70 % 0.00 in
17:09 73.5 °F 63.1 °F 30.11 in East 2.0 mph 3.5 mph 70 % 0.00 in
17:14 73.8 °F 62.2 °F 30.12 in ENE 2.7 mph 8.0 mph 67 % 0.00 in
17:20 73.8 °F 61.7 °F 30.12 in ENE 1.8 mph 3.5 mph 66 % 0.00 in
17:25 73.7 °F 62.1 °F 30.12 in East 1.6 mph 3.5 mph 67 % 0.00 in
17:30 73.5 °F 61.9 °F 30.11 in ENE 2.0 mph 3.5 mph 67 % 0.00 in
17:35 73.4 °F 62.2 °F 30.11 in East 2.1 mph 3.5 mph 68 % 0.00 in
17:40 73.3 °F 61.3 °F 30.11 in East 1.5 mph 3.5 mph 66 % 0.00 in
17:45 73.1 °F 61.1 °F 30.11 in East 1.8 mph 3.5 mph 66 % 0.00 in
17:50 72.8 °F 60.3 °F 30.11 in East 1.8 mph 3.5 mph 65 % 0.00 in
17:55 72.6 °F 60.6 °F 30.10 in East 1.5 mph 3.0 mph 66 % 0.00 in
18:00 72.4 °F 60.8 °F 30.11 in East 1.5 mph 2.3 mph 67 % 0.00 in
18:05 72.4 °F 60.8 °F 30.11 in ENE 1.8 mph 3.5 mph 67 % 0.00 in
18:11 72.5 °F 61.3 °F 30.11 in East 1.7 mph 2.3 mph 68 % 0.00 in
18:16 72.5 °F 61.3 °F 30.11 in East 2.0 mph 3.0 mph 68 % 0.00 in
18:21 72.5 °F 61.3 °F 30.11 in East 2.0 mph 3.0 mph 68 % 0.00 in
18:26 72.4 °F 61.2 °F 30.11 in East 2.0 mph 4.6 mph 68 % 0.00 in
18:31 72.2 °F 61.5 °F 30.11 in East 2.0 mph 5.0 mph 69 % 0.00 in
18:36 72.0 °F 61.3 °F 30.11 in East 2.0 mph 3.0 mph 69 % 0.00 in
18:41 71.7 °F 61.0 °F 30.11 in East 1.3 mph 2.3 mph 69 % 0.00 in
18:46 71.4 °F 61.5 °F 30.11 in East 1.0 mph 2.0 mph 71 % 0.00 in
18:51 71.2 °F 61.3 °F 30.11 in East 1.0 mph 3.0 mph 71 % 0.00 in
18:56 70.8 °F 60.5 °F 30.12 in ENE 1.4 mph 8.1 mph 70 % 0.00 in
19:01 70.6 °F 60.3 °F 30.12 in ESE 0.5 mph 3.5 mph 70 % 0.00 in
19:06 70.4 °F 60.5 °F 30.12 in ESE 0.5 mph 2.3 mph 71 % 0.00 in
19:11 70.1 °F 60.7 °F 30.12 in SE 0.7 mph 2.3 mph 72 % 0.00 in
19:16 69.8 °F 60.4 °F 30.12 in SE 0.2 mph 1.2 mph 72 % 0.00 in
19:21 69.7 °F 60.3 °F 30.12 in SE 0.2 mph 1.2 mph 72 % 0.00 in
19:26 69.5 °F 60.1 °F 30.12 in SE 0.8 mph 2.0 mph 72 % 0.00 in
19:31 69.4 °F 60.0 °F 30.12 in SE 1.6 mph 3.5 mph 72 % 0.00 in
19:36 69.3 °F 59.5 °F 30.12 in SE 1.5 mph 2.3 mph 71 % 0.00 in
19:41 69.1 °F 59.7 °F 30.12 in SE 1.3 mph 3.5 mph 72 % 0.00 in
19:47 69.0 °F 59.6 °F 30.12 in SE 0.5 mph 2.3 mph 72 % 0.00 in
19:52 68.8 °F 59.4 °F 30.12 in Calm   2.3 mph 72 % 0.00 in
19:57 68.6 °F 59.2 °F 30.12 in SE 0.5 mph 2.3 mph 72 % 0.00 in
20:02 68.5 °F 59.5 °F 30.12 in SE 2.1 mph 4.0 mph 73 % 0.00 in
20:07 68.3 °F 59.3 °F 30.12 in SE 0.4 mph 1.2 mph 73 % 0.00 in
20:17 68.0 °F 59.4 °F 30.13 in SE 0.6 mph 2.0 mph 74 % 0.00 in
20:22 67.8 °F 59.2 °F 30.13 in SE 0.2 mph 1.0 mph 74 % 0.00 in
20:27 67.7 °F 59.5 °F 30.13 in Calm     75 % 0.00 in
20:32 67.5 °F 59.3 °F 30.13 in SE 0.1 mph   75 % 0.00 in
20:38 67.3 °F 59.5 °F 30.12 in Calm   1.0 mph 76 % 0.00 in
20:43 67.0 °F 59.2 °F 30.12 in Calm     76 % 0.00 in
20:48 66.8 °F 59.0 °F 30.12 in Calm     76 % 0.00 in
20:53 66.6 °F 59.2 °F 30.13 in Calm     77 % 0.00 in
20:58 66.4 °F 59.3 °F 30.13 in Calm     78 % 0.00 in
21:03 66.2 °F 59.1 °F 30.13 in Calm     78 % 0.00 in
21:08 66.0 °F 59.3 °F 30.13 in SE 0.1 mph 1.0 mph 79 % 0.00 in
21:13 65.9 °F 59.2 °F 30.12 in SE 0.4 mph 1.0 mph 79 % 0.00 in
21:18 65.8 °F 59.5 °F 30.12 in SE 0.4 mph 1.0 mph 80 % 0.00 in
21:23 65.6 °F 60.0 °F 30.12 in SE 0.9 mph 3.5 mph 82 % 0.00 in
21:29 65.6 °F 60.0 °F 30.12 in SSE 1.0 mph 1.2 mph 82 % 0.00 in
21:34 65.5 °F 60.2 °F 30.12 in SSE 0.1 mph 1.0 mph 83 % 0.00 in
21:39 65.5 °F 60.2 °F 30.12 in SSE 0.1 mph 2.3 mph 83 % 0.00 in
21:44 65.5 °F 60.2 °F 30.12 in SSE 0.2 mph 1.2 mph 83 % 0.00 in
21:49 65.5 °F 60.5 °F 30.12 in SSE 0.3 mph 1.2 mph 84 % 0.00 in
21:54 65.5 °F 60.5 °F 30.12 in Calm     84 % 0.00 in
21:59 65.5 °F 60.5 °F 30.12 in Calm     84 % 0.00 in
22:04 65.5 °F 60.9 °F 30.12 in East 0.1 mph 1.2 mph 85 % 0.00 in
22:09 65.5 °F 60.9 °F 30.12 in Calm   1.0 mph 85 % 0.00 in
22:14 65.6 °F 61.0 °F 30.11 in East 0.1 mph 1.2 mph 85 % 0.00 in
22:20 65.6 °F 61.3 °F 30.11 in ENE 1.6 mph 2.3 mph 86 % 0.00 in
22:25 66.0 °F 62.0 °F 30.11 in ENE 4.2 mph 4.2 mph 87 % 0.00 in
22:30 66.6 °F 62.3 °F 30.11 in ENE 1.4 mph 9.2 mph 86 % 0.00 in
22:35 67.0 °F 62.3 °F 30.11 in ENE 3.1 mph 4.6 mph 85 % 0.00 in
22:40 67.3 °F 62.3 °F 30.12 in NE 4.4 mph 6.9 mph 84 % 0.00 in
22:45 67.8 °F 62.8 °F 30.12 in ENE 4.5 mph 9.0 mph 84 % 0.00 in
22:50 68.1 °F 62.7 °F 30.11 in SE 1.1 mph 4.0 mph 83 % 0.00 in
22:55 68.1 °F 62.4 °F 30.12 in ESE 0.4 mph 2.3 mph 82 % 0.00 in
23:00 68.1 °F 62.4 °F 30.12 in ESE 0.2 mph   82 % 0.00 in
23:05 68.0 °F 62.3 °F 30.12 in NNE 1.1 mph 2.3 mph 82 % 0.00 in
23:11 68.0 °F 61.9 °F 30.12 in ENE 1.0 mph 2.0 mph 81 % 0.00 in
23:16 67.9 °F 61.9 °F 30.12 in SE 0.1 mph 3.5 mph 81 % 0.00 in
23:21 67.9 °F 61.9 °F 30.12 in Calm   1.0 mph 81 % 0.00 in
23:26 67.8 °F 61.8 °F 30.12 in Calm     81 % 0.00 in
23:31 67.7 °F 61.7 °F 30.13 in SE 0.5 mph 1.2 mph 81 % 0.00 in
23:36 67.6 °F 61.6 °F 30.13 in SE 1.0 mph 4.0 mph 81 % 0.00 in
23:40 67.6 °F 61.6 °F 30.13 in SE 1.0 mph 4.0 mph 81 % 0.00 in
23:46 67.6 °F 61.9 °F 30.13 in SE 1.8 mph 2.3 mph 82 % 0.00 in
23:50 67.5 °F 61.5 °F 30.13 in SE 3.0 mph 5.0 mph 81 % 0.00 in
23:56 67.5 °F 61.5 °F 30.14 in SE 1.0 mph 3.0 mph 81 % 0.00 in
Crab Meadow Weather
Compliments of Weather Underground - 3 mb

Script developed by  Jim McMurry - jmcmurry@mwt.net Adapted for the template by  Wim van der Kuil - Leuven-Template.eu

Recycling: An estimated 80,000,000 Hershey's Kisses are wrapped each day, using enough aluminum foil to cover over 50 acres of space -- that's almost 40 football fields. All that foil is recyclable, but not many people realize it.